Time;durP1;ratioP1;P1;durP2;ratioP2;P2;SDS_P1;SDS_P2;PMS_P1;PMS_P2;Temp;Humidity;BMP_temperature;BMP_pressure;BME280_temperature;BME280_humidity;BME280_pressure;Samples;Min_cycle;Max_cycle;Signal;HPM_P1;HPM_P2
2022/10/13 00:01:25;;;;;;;22.20;10.80;;;;;;;10.33;100.00;101859.03;5070500;28;20053;-67
2022/10/13 00:03:51;;;;;;;21.40;9.65;;;;;;;10.34;100.00;101856.19;5070514;28;20387;-67
2022/10/13 00:06:19;;;;;;;28.38;12.00;;;;;;;10.33;100.00;101849.19;5070367;28;20051;-67
2022/10/13 00:08:45;;;;;;;20.70;10.75;;;;;;;10.30;100.00;101841.56;5070165;28;20044;-67
2022/10/13 00:11:18;;;;;;;19.27;10.88;;;;;;;10.36;100.00;101843.53;5070238;28;20024;-67
2022/10/13 00:13:44;;;;;;;19.63;9.93;;;;;;;10.38;100.00;101844.19;5070221;28;20115;-67
2022/10/13 00:16:13;;;;;;;18.95;9.02;;;;;;;10.41;100.00;101845.69;5070057;28;20032;-67
2022/10/13 00:18:38;;;;;;;23.45;9.95;;;;;;;10.44;100.00;101834.66;5070020;28;20060;-67
2022/10/13 00:21:08;;;;;;;21.45;9.48;;;;;;;10.46;100.00;101836.16;5069952;28;20372;-67
2022/10/13 00:23:34;;;;;;;24.23;10.68;;;;;;;10.47;100.00;101831.66;5069689;28;20177;-67
2022/10/13 00:26:03;;;;;;;19.63;10.18;;;;;;;10.46;100.00;101830.81;5069902;28;20636;-67
2022/10/13 00:28:28;;;;;;;22.58;11.13;;;;;;;10.46;100.00;101827.34;5069967;28;20935;-67
2022/10/13 00:30:53;;;;;;;21.13;11.20;;;;;;;10.48;100.00;101820.81;5069269;28;20028;-67
2022/10/13 00:33:19;;;;;;;20.38;9.80;;;;;;;10.50;100.00;101825.97;5069768;28;20028;-67
2022/10/13 00:35:46;;;;;;;17.80;8.75;;;;;;;10.49;100.00;101830.47;5069627;28;20047;-67
2022/10/13 00:38:13;;;;;;;20.65;10.40;;;;;;;10.49;100.00;101822.47;5069562;28;20037;-67
2022/10/13 00:40:50;;;;;;;21.85;10.27;;;;;;;10.53;100.00;101822.94;5069828;28;20028;-67
2022/10/13 00:43:17;;;;;;;19.95;9.55;;;;;;;10.53;100.00;101826.47;5070299;28;20518;-67
2022/10/13 00:45:42;;;;;;;21.10;8.82;;;;;;;10.53;100.00;101828.28;5071290;28;20111;-67
2022/10/13 00:48:08;;;;;;;19.33;9.88;;;;;;;10.52;100.00;101824.78;5069706;28;20169;-67
2022/10/13 00:50:38;;;;;;;19.33;9.20;;;;;;;10.50;100.00;101821.47;5069356;28;20554;-67
2022/10/13 00:53:05;;;;;;;22.20;9.90;;;;;;;10.52;100.00;101821.31;5068873;28;20033;-68
2022/10/13 00:55:33;;;;;;;23.77;9.57;;;;;;;10.51;100.00;101820.47;5069290;28;20017;-67
2022/10/13 00:58:03;;;;;;;19.02;9.68;;;;;;;10.52;100.00;101823.97;5069451;28;20032;-67
2022/10/13 01:00:29;;;;;;;20.45;9.35;;;;;;;10.55;100.00;101818.28;5069860;28;20162;-67
2022/10/13 01:02:55;;;;;;;19.73;9.25;;;;;;;10.55;100.00;101818.28;5069326;28;20107;-67
2022/10/13 01:05:21;;;;;;;23.30;9.63;;;;;;;10.57;100.00;101831.47;5069469;28;20024;-67
2022/10/13 01:07:50;;;;;;;20.02;10.43;;;;;;;10.57;100.00;101818.13;5069258;28;20032;-67
2022/10/13 01:10:28;;;;;;;18.27;9.63;;;;;;;10.58;100.00;101825.09;5069272;28;20186;-66
2022/10/13 01:13:05;;;;;;;19.90;9.00;;;;;;;10.58;100.00;101823.28;5069315;28;20028;-66
2022/10/13 01:15:46;;;;;;;17.67;8.82;;;;;;;10.57;100.00;101815.47;5069285;28;20056;-66
2022/10/13 01:18:11;;;;;;;16.20;8.55;;;;;;;10.60;100.00;101817.78;5068842;28;20051;-66
2022/10/13 01:20:58;;;;;;;20.87;10.10;;;;;;;10.62;100.00;101823.78;5069107;28;20036;-66
2022/10/13 01:23:38;;;;;;;18.10;9.50;;;;;;;10.62;100.00;101824.59;5069222;28;20353;-66
2022/10/13 01:26:25;;;;;;;17.88;8.73;;;;;;;10.63;100.00;101820.09;5069366;28;20467;-66
2022/10/13 01:29:12;;;;;;;17.45;9.27;;;;;;;10.65;100.00;101820.75;5069216;28;20357;-66
2022/10/13 01:32:29;;;;;;;19.95;9.45;;;;;;;10.68;100.00;101815.06;5068906;28;20110;-66
2022/10/13 01:35:08;;;;;;;24.63;8.60;;;;;;;10.70;100.00;101824.56;5051275;28;20128;-66
2022/10/13 01:37:54;;;;;;;18.33;10.23;;;;;;;10.73;100.00;101824.22;5069072;28;20063;-66
2022/10/13 01:40:24;;;;;;;17.40;8.35;;;;;;;10.75;100.00;101821.38;5069027;28;20460;-66
2022/10/13 01:42:56;;;;;;;20.15;9.13;;;;;;;10.78;100.00;101815.69;5070390;28;20056;-66
2022/10/13 01:45:29;;;;;;;23.00;10.55;;;;;;;10.81;100.00;101809.19;5073002;28;20636;-66
2022/10/13 01:47:56;;;;;;;14.32;8.02;;;;;;;10.83;100.00;101807.16;5073140;28;20028;-65
2022/10/13 01:50:22;;;;;;;19.90;9.07;;;;;;;10.84;100.00;101808.81;5073094;28;20040;-65
2022/10/13 01:52:49;;;;;;;15.95;7.50;;;;;;;10.85;100.00;101802.50;5072784;28;20029;-65
2022/10/13 01:55:14;;;;;;;20.27;8.90;;;;;;;10.89;100.00;101803.78;5072427;28;20427;-65
2022/10/13 01:57:42;;;;;;;18.42;8.50;;;;;;;10.91;100.00;101804.47;5072809;28;20039;-65
2022/10/13 02:00:15;;;;;;;19.45;9.63;;;;;;;10.93;100.00;101799.78;5072692;28;20087;-65
2022/10/13 02:03:05;;;;;;;22.00;9.57;;;;;;;10.93;100.00;101794.44;5072779;28;20025;-65
2022/10/13 02:05:57;;;;;;;14.40;8.73;;;;;;;10.93;100.00;101794.44;5072322;28;20052;-66
2022/10/13 02:08:42;;;;;;;16.52;7.63;;;;;;;10.93;100.00;101789.09;5064959;28;20495;-66
2022/10/13 02:11:20;;;;;;;19.25;8.68;;;;;;;10.92;100.00;101776.75;5072271;28;20102;-65
2022/10/13 02:13:51;;;;;;;21.85;9.23;;;;;;;10.94;100.00;101785.41;5072552;28;20025;-65
2022/10/13 02:16:19;;;;;;;20.50;8.60;;;;;;;10.94;100.00;101777.41;5072301;28;20051;-66
2022/10/13 02:18:45;;;;;;;21.52;9.02;;;;;;;10.94;100.00;101780.06;5072216;28;20029;-65
2022/10/13 02:21:10;;;;;;;15.95;7.97;;;;;;;10.93;100.00;101779.25;5072304;28;20119;-66
2022/10/13 02:23:36;;;;;;;19.73;9.07;;;;;;;10.95;100.00;101774.56;5072405;28;20379;-65
2022/10/13 02:26:02;;;;;;;17.35;8.30;;;;;;;10.96;100.00;101770.06;5072278;28;20029;-65
2022/10/13 02:28:28;;;;;;;16.67;7.90;;;;;;;10.98;100.00;101768.06;5072206;28;20100;-66
2022/10/13 02:30:53;;;;;;;20.60;8.95;;;;;;;11.00;100.00;101762.53;5072216;28;20115;-66
2022/10/13 02:33:19;;;;;;;20.00;8.88;;;;;;;11.01;100.00;101761.53;5072109;28;20040;-65
2022/10/13 02:35:44;;;;;;;18.70;9.80;;;;;;;11.01;100.00;101756.19;5071884;28;20139;-65
2022/10/13 02:38:10;;;;;;;19.38;8.40;;;;;;;11.01;100.00;101756.19;5072097;28;20032;-65
2022/10/13 02:40:36;;;;;;;19.20;9.27;;;;;;;11.02;100.00;101752.50;5071965;28;20082;-65
2022/10/13 02:43:01;;;;;;;19.33;9.30;;;;;;;11.02;100.00;101757.84;5071987;28;20040;-65
2022/10/13 02:45:26;;;;;;;19.42;8.55;;;;;;;11.01;100.00;101748.19;5072014;28;20034;-65
2022/10/13 02:47:52;;;;;;;18.38;7.72;;;;;;;11.01;100.00;101757.03;5072089;28;20037;-66
2022/10/13 02:50:17;;;;;;;19.27;8.10;;;;;;;11.00;100.00;101760.69;5071893;28;20040;-65
2022/10/13 02:52:42;;;;;;;18.95;9.18;;;;;;;10.99;100.00;101752.88;5071795;28;20528;-65
2022/10/13 02:55:08;;;;;;;19.25;9.00;;;;;;;10.99;100.00;101753.69;5070730;28;20051;-65
2022/10/13 02:57:34;;;;;;;18.02;8.45;;;;;;;11.00;100.00;101743.84;5071083;28;20115;-65
2022/10/13 02:59:59;;;;;;;19.30;9.02;;;;;;;11.01;100.00;101741.00;5071474;28;20032;-65
2022/10/13 03:02:25;;;;;;;20.50;9.10;;;;;;;10.99;100.00;101751.03;5071694;28;20075;-65
2022/10/13 03:04:51;;;;;;;17.58;7.68;;;;;;;10.99;100.00;101739.53;5071592;28;20484;-65
2022/10/13 03:07:16;;;;;;;19.35;9.48;;;;;;;10.99;100.00;101745.69;5071574;28;20044;-65
2022/10/13 03:09:42;;;;;;;17.60;8.05;;;;;;;10.99;100.00;101743.00;5069968;28;20131;-65
2022/10/13 03:12:07;;;;;;;17.52;10.02;;;;;;;10.98;100.00;101738.69;5072758;28;20043;-65
2022/10/13 03:14:33;;;;;;;17.15;8.60;;;;;;;10.97;100.00;101729.84;5072292;28;20032;-65
2022/10/13 03:16:58;;;;;;;19.92;8.90;;;;;;;10.97;100.00;101723.66;5071112;28;20059;-65
2022/10/13 03:19:23;;;;;;;19.50;8.55;;;;;;;10.99;100.00;101723.50;5071306;28;20128;-65
2022/10/13 03:21:49;;;;;;;21.70;8.02;;;;;;;10.99;100.00;101723.50;5071352;28;20052;-65
2022/10/13 03:24:14;;;;;;;17.35;8.52;;;;;;;10.96;100.00;101727.34;5071230;28;20025;-65
2022/10/13 03:26:40;;;;;;;21.00;9.13;;;;;;;10.97;100.00;101724.50;5071205;28;20111;-65
2022/10/13 03:29:05;;;;;;;20.63;9.27;;;;;;;10.96;100.00;101724.69;5071294;28;20039;-65
2022/10/13 03:31:30;;;;;;;19.45;8.82;;;;;;;10.95;100.00;101726.53;5071021;28;20444;-65
2022/10/13 03:33:56;;;;;;;19.40;7.30;;;;;;;10.96;100.00;101724.69;5071123;28;20422;-65
2022/10/13 03:36:21;;;;;;;19.25;8.52;;;;;;;10.95;100.00;101731.00;5071189;28;20032;-65
2022/10/13 03:38:46;;;;;;;21.58;8.10;;;;;;;10.97;100.00;101729.00;5070225;28;20121;-65
2022/10/13 03:41:14;;;;;;;19.55;8.63;;;;;;;10.97;100.00;101729.84;5070632;28;20028;-65
2022/10/13 03:43:40;;;;;;;20.33;8.52;;;;;;;10.96;100.00;101722.03;5070788;28;20357;-65
2022/10/13 03:46:07;;;;;;;20.20;8.63;;;;;;;10.96;100.00;101719.34;5070785;28;20050;-65
2022/10/13 03:48:34;;;;;;;19.73;8.90;;;;;;;10.96;100.00;101720.19;5070916;28;20020;-65
2022/10/13 03:51:07;;;;;;;18.63;7.85;;;;;;;10.96;100.00;101722.03;5070765;28;20039;-65
2022/10/13 03:53:33;;;;;;;17.20;7.95;;;;;;;10.97;100.00;101718.31;5070614;28;20103;-65
2022/10/13 03:55:59;;;;;;;22.27;8.63;;;;;;;10.99;100.00;101712.81;5069398;28;20039;-65
2022/10/13 03:58:27;;;;;;;16.35;7.95;;;;;;;10.99;100.00;101716.31;5070207;28;20071;-65
2022/10/13 04:00:52;;;;;;;19.60;8.45;;;;;;;10.99;100.00;101707.50;5070554;28;20414;-65
2022/10/13 04:03:18;;;;;;;18.70;8.32;;;;;;;10.99;100.00;101710.16;5070543;28;20097;-65
2022/10/13 04:05:43;;;;;;;17.63;8.50;;;;;;;11.01;100.00;101705.47;5070309;28;20491;-65
2022/10/13 04:08:09;;;;;;;17.05;7.63;;;;;;;11.01;100.00;101705.47;5070211;28;20488;-65
2022/10/13 04:10:34;;;;;;;19.13;7.88;;;;;;;11.01;100.00;101702.81;5070416;28;20089;-65
2022/10/13 04:13:00;;;;;;;16.60;8.82;;;;;;;11.01;100.00;101698.28;5070214;28;20105;-66
2022/10/13 04:15:25;;;;;;;17.63;8.02;;;;;;;11.01;100.00;101695.63;5070156;28;20035;-65
2022/10/13 04:17:50;;;;;;;20.15;7.75;;;;;;;11.04;100.00;101686.44;5069991;28;20060;-65
2022/10/13 04:20:16;;;;;;;17.00;8.30;;;;;;;11.05;100.00;101694.25;5069940;28;20028;-65
2022/10/13 04:22:41;;;;;;;17.90;8.23;;;;;;;11.07;100.00;101694.91;5070077;28;20032;-65
2022/10/13 04:25:07;;;;;;;16.75;7.57;;;;;;;11.10;100.00;101696.38;5070091;28;20906;-65
2022/10/13 04:27:35;;;;;;;18.13;8.35;;;;;;;11.11;100.00;101688.22;5069931;28;20040;-65
2022/10/13 04:30:00;;;;;;;18.45;8.20;;;;;;;11.12;100.00;101681.84;5069945;28;20024;-65
2022/10/13 04:32:26;;;;;;;20.27;8.57;;;;;;;11.12;100.00;101684.50;5069882;28;20036;-65
2022/10/13 04:34:52;;;;;;;20.08;8.63;;;;;;;11.16;100.00;101680.50;5069897;28;20040;-65
2022/10/13 04:37:17;;;;;;;16.58;7.57;;;;;;;11.15;100.00;101681.47;5069696;28;20121;-65
2022/10/13 04:39:42;;;;;;;16.60;8.23;;;;;;;11.16;100.00;101677.81;5069636;28;20667;-65
2022/10/13 04:42:08;;;;;;;18.40;6.97;;;;;;;11.16;100.00;101677.81;5069517;28;20072;-65
2022/10/13 04:44:33;;;;;;;19.15;7.93;;;;;;;11.17;100.00;101679.47;5069067;28;20052;-65
2022/10/13 04:47:00;;;;;;;19.92;8.85;;;;;;;11.17;100.00;101679.47;5069558;28;20028;-65
2022/10/13 04:49:25;;;;;;;18.02;8.50;;;;;;;11.17;100.00;101673.31;5069715;28;20049;-65
2022/10/13 04:51:51;;;;;;;25.40;11.32;;;;;;;11.18;100.00;101667.75;5069489;28;20974;-65
2022/10/13 04:54:17;;;;;;;17.95;7.78;;;;;;;11.18;100.00;101672.28;5069631;28;20115;-65
2022/10/13 04:56:45;;;;;;;15.10;7.70;;;;;;;11.17;100.00;101686.66;5069534;28;20043;-65
2022/10/13 04:59:11;;;;;;;18.95;8.55;;;;;;;11.17;100.00;101679.47;5069392;28;20033;-65
2022/10/13 05:01:36;;;;;;;18.17;8.02;;;;;;;11.11;100.00;101656.16;5068791;28;20114;-65
2022/10/13 05:04:03;;;;;;;19.17;8.43;;;;;;;11.15;100.00;101657.44;5069376;28;20032;-65
2022/10/13 05:06:34;;;;;;;23.65;9.45;;;;;;;11.16;100.00;101663.63;5069206;28;20040;-66
2022/10/13 05:09:00;;;;;;;18.00;8.57;;;;;;;11.14;100.00;101671.00;5069316;28;20028;-65
2022/10/13 05:11:27;;;;;;;18.02;9.13;;;;;;;11.13;100.00;101674.66;5068213;28;20107;-65
2022/10/13 05:13:53;;;;;;;19.45;9.90;;;;;;;11.13;100.00;101682.66;5069341;28;20124;-65
2022/10/13 05:16:21;;;;;;;20.00;8.07;;;;;;;11.11;100.00;101682.88;5069106;28;20075;-65
2022/10/13 05:18:47;;;;;;;27.73;11.43;;;;;;;11.09;100.00;101658.19;5068751;28;20476;-65
2022/10/13 05:21:17;;;;;;;17.20;10.02;;;;;;;11.11;100.00;101655.34;5068929;28;20103;-65
2022/10/13 05:23:44;;;;;;;24.70;11.52;;;;;;;11.11;100.00;101644.66;5069135;28;20021;-65
2022/10/13 05:26:13;;;;;;;23.42;12.90;;;;;;;11.09;100.00;101654.69;5069053;28;20989;-65
2022/10/13 05:28:39;;;;;;;30.58;16.65;;;;;;;11.11;100.00;101671.38;5068976;28;20085;-66
2022/10/13 05:31:13;;;;;;;28.05;15.40;;;;;;;11.10;100.00;101683.03;5069026;28;20037;-66
2022/10/13 05:33:39;;;;;;;22.45;13.43;;;;;;;11.07;100.00;101670.88;5068828;28;20143;-67
2022/10/13 05:36:10;;;;;;;28.00;17.08;;;;;;;11.08;100.00;101674.38;5069231;28;20032;-66
2022/10/13 05:38:36;;;;;;;30.50;20.60;;;;;;;11.09;100.00;101682.22;5068890;28;20029;-66
2022/10/13 05:41:07;;;;;;;34.80;17.48;;;;;;;11.10;100.00;101683.84;5070373;28;20361;-66
2022/10/13 05:43:33;;;;;;;28.08;17.55;;;;;;;11.08;100.00;101682.38;5063081;28;20387;-66
2022/10/13 05:45:59;;;;;;;22.27;15.27;;;;;;;11.08;100.00;101682.38;5068813;28;20021;-66
2022/10/13 05:48:25;;;;;;;24.30;14.23;;;;;;;11.09;100.00;101684.06;5068874;28;20025;-66
2022/10/13 05:50:51;;;;;;;25.13;15.15;;;;;;;11.08;100.00;101677.03;5068998;28;20040;-66
2022/10/13 05:53:17;;;;;;;24.85;14.00;;;;;;;11.06;100.00;101674.56;5068413;28;20036;-66
2022/10/13 05:55:43;;;;;;;21.10;11.98;;;;;;;11.09;100.00;101684.06;5068430;28;20039;-66
2022/10/13 05:58:08;;;;;;;25.70;13.93;;;;;;;11.08;100.00;101667.22;5068761;28;20111;-66
2022/10/13 06:00:34;;;;;;;19.10;10.40;;;;;;;11.09;100.00;101668.88;5068921;28;20378;-66
2022/10/13 06:03:07;;;;;;;25.38;11.85;;;;;;;11.09;100.00;101657.34;5067954;28;20909;-66
2022/10/13 06:05:33;;;;;;;18.02;10.75;;;;;;;11.09;100.00;101662.69;5068888;28;20040;-66
2022/10/13 06:07:59;;;;;;;20.27;11.70;;;;;;;11.08;100.00;101667.22;5067340;28;20094;-67
2022/10/13 06:10:25;;;;;;;23.15;10.57;;;;;;;11.09;100.00;101666.19;5067304;28;20557;-66
2022/10/13 06:12:50;;;;;;;27.80;10.48;;;;;;;11.10;100.00;101669.69;5068646;28;20043;-66
2022/10/13 06:15:16;;;;;;;21.45;10.35;;;;;;;11.09;100.00;101674.19;5068078;28;20375;-66
2022/10/13 06:17:41;;;;;;;25.77;11.63;;;;;;;11.12;100.00;101668.50;5068480;28;20611;-66
2022/10/13 06:20:07;;;;;;;21.17;10.77;;;;;;;11.12;100.00;101673.84;5068527;28;20044;-66
2022/10/13 06:22:34;;;;;;;23.02;10.07;;;;;;;11.12;100.00;101663.16;5068449;28;20059;-66
2022/10/13 06:24:59;;;;;;;27.90;11.23;;;;;;;11.14;100.00;101661.13;5068636;28;21050;-66
2022/10/13 06:27:25;;;;;;;20.08;9.82;;;;;;;11.15;100.00;101652.09;5068501;28;20081;-66
2022/10/13 06:29:50;;;;;;;21.55;10.63;;;;;;;11.16;100.00;101648.44;5069450;28;20043;-66
2022/10/13 06:32:16;;;;;;;20.83;11.25;;;;;;;11.19;100.00;101655.28;5071897;28;20127;-66
2022/10/13 06:34:42;;;;;;;20.02;9.25;;;;;;;11.21;100.00;101644.38;5071753;28;20070;-66
2022/10/13 06:37:07;;;;;;;22.40;10.00;;;;;;;11.23;100.00;101650.38;5072010;28;20663;-66
2022/10/13 06:39:33;;;;;;;20.85;9.40;;;;;;;11.24;100.00;101650.22;5071862;28;20032;-66
2022/10/13 06:41:58;;;;;;;22.45;10.18;;;;;;;11.26;100.00;101645.50;5071930;28;20059;-68
2022/10/13 06:44:23;;;;;;;20.45;10.65;;;;;;;11.28;100.00;101648.81;5071831;28;20032;-67
2022/10/13 06:46:49;;;;;;;18.88;10.32;;;;;;;11.30;100.00;101649.47;5071712;28;20024;-67
2022/10/13 06:49:14;;;;;;;21.60;10.63;;;;;;;11.31;100.00;101651.13;5071834;28;20106;-67
2022/10/13 06:51:39;;;;;;;21.85;9.63;;;;;;;11.33;100.00;101646.44;5071694;28;20044;-67
2022/10/13 06:54:05;;;;;;;22.48;11.65;;;;;;;11.36;100.00;101650.59;5071484;28;20472;-65
2022/10/13 06:56:30;;;;;;;23.30;10.75;;;;;;;11.37;100.00;101658.44;5071628;28;20035;-66
2022/10/13 06:58:55;;;;;;;24.73;9.65;;;;;;;11.39;100.00;101647.53;5071359;28;20032;-65
2022/10/13 07:01:21;;;;;;;24.15;11.80;;;;;;;11.41;100.00;101646.34;5071471;28;20028;-67
2022/10/13 07:03:50;;;;;;;22.02;10.55;;;;;;;11.45;100.00;101643.31;5071282;28;20031;-66
2022/10/13 07:06:17;;;;;;;19.40;10.25;;;;;;;11.46;100.00;101640.47;5071159;28;20503;-66
2022/10/13 07:08:43;;;;;;;23.42;10.63;;;;;;;11.50;100.00;101654.28;5071363;28;20165;-66
2022/10/13 07:11:11;;;;;;;20.52;9.35;;;;;;;11.51;100.00;101646.09;5070966;28;20119;-67
2022/10/13 07:13:37;;;;;;;22.80;9.80;;;;;;;11.55;100.00;101643.88;5070643;28;20487;-66
2022/10/13 07:16:04;;;;;;;23.05;10.55;;;;;;;11.59;100.00;101648.69;5071111;28;20036;-66
2022/10/13 07:18:30;;;;;;;17.85;9.55;;;;;;;11.62;100.00;101644.81;5070443;28;20048;-66
2022/10/13 07:20:57;;;;;;;21.30;10.32;;;;;;;11.65;100.00;101648.97;5071072;28;20098;-66
2022/10/13 07:23:22;;;;;;;21.10;10.38;;;;;;;11.66;100.00;101646.13;5071235;28;20099;-66
2022/10/13 07:25:48;;;;;;;21.63;11.25;;;;;;;11.69;100.00;101643.06;5071156;28;20123;-66
2022/10/13 07:28:13;;;;;;;22.27;11.50;;;;;;;11.73;100.00;101652.34;5071165;28;20048;-67
2022/10/13 07:30:39;;;;;;;23.60;10.98;;;;;;;11.74;100.00;101653.22;5068754;28;20032;-66
2022/10/13 07:33:04;;;;;;;24.50;10.32;;;;;;;11.75;100.00;101654.84;5066155;28;20058;-67
2022/10/13 07:35:30;;;;;;;21.38;10.93;;;;;;;11.75;100.00;101655.69;5066333;28;20128;-67
2022/10/13 07:37:55;;;;;;;23.92;10.98;;;;;;;11.77;100.00;101655.50;5066897;28;20036;-68
2022/10/13 07:40:20;;;;;;;22.75;10.98;;;;;;;11.79;100.00;101665.00;5066474;28;20364;-67
2022/10/13 07:42:46;;;;;;;18.80;9.27;;;;;;;11.81;100.00;101654.94;5066308;28;20032;-68
2022/10/13 07:45:11;;;;;;;22.65;10.90;;;;;;;11.84;100.00;101654.59;5066204;28;20028;-70
2022/10/13 07:47:36;;;;;;;19.98;9.27;;;;;;;11.87;100.00;101645.41;5066767;28;20459;-70
2022/10/13 07:50:02;;;;;;;21.30;9.52;;;;;;;11.88;100.00;101646.22;5066629;28;20573;-68
2022/10/13 07:52:27;;;;;;;21.05;11.48;;;;;;;11.94;100.00;101651.63;5066653;28;20021;-67
2022/10/13 07:54:53;;;;;;;21.17;11.18;;;;;;;11.98;100.00;101652.13;5066752;28;20052;-67
2022/10/13 07:57:18;;;;;;;21.33;10.00;;;;;;;11.99;100.00;101653.75;5065698;28;20032;-67
2022/10/13 07:59:44;;;;;;;24.55;11.70;;;;;;;12.03;100.00;101657.75;5066473;28;20032;-67
2022/10/13 08:02:09;;;;;;;20.27;9.70;;;;;;;12.04;100.00;101662.06;5063902;28;20047;-66
2022/10/13 08:04:35;;;;;;;23.13;10.15;;;;;;;12.05;100.00;101658.34;5070210;28;20039;-66
2022/10/13 08:07:01;;;;;;;26.98;10.32;;;;;;;12.08;100.00;101660.69;5069622;28;20039;-66
2022/10/13 08:09:27;;;;;;;19.48;9.18;;;;;;;12.12;100.00;101658.44;5070357;28;20020;-66
2022/10/13 08:11:52;;;;;;;20.98;10.98;;;;;;;12.14;100.00;101654.56;5070341;28;20479;-66
2022/10/13 08:14:19;;;;;;;22.48;10.68;;;;;;;12.21;100.00;101655.50;5070105;28;20964;-66
2022/10/13 08:16:44;;;;;;;19.67;11.25;;;;;;;12.28;100.00;101650.19;5069765;28;20101;-66
2022/10/13 08:19:13;;;;;;;21.92;10.82;;;;;;;12.27;100.00;101638.69;5069736;28;20028;-66
2022/10/13 08:21:39;;;;;;;23.73;11.20;;;;;;;12.40;100.00;101648.72;5069980;28;20035;-66
2022/10/13 08:24:15;;;;;;;27.85;13.10;;;;;;;12.47;100.00;101640.72;5070053;28;20028;-66
2022/10/13 08:26:41;;;;;;;22.70;12.27;;;;;;;12.55;100.00;101642.47;5069918;28;20063;-66
2022/10/13 08:29:07;;;;;;;21.50;11.13;;;;;;;12.63;100.00;101634.34;5069670;28;20484;-65
2022/10/13 08:31:32;;;;;;;19.48;10.80;;;;;;;12.73;100.00;101634.81;5069801;28;20165;-66
2022/10/13 08:33:57;;;;;;;19.63;9.80;;;;;;;12.78;99.13;101636.94;5069842;28;20127;-66
2022/10/13 08:36:23;;;;;;;24.60;10.23;;;;;;;12.84;99.89;101639.69;5069946;28;20039;-66
2022/10/13 08:38:49;;;;;;;19.58;9.63;;;;;;;12.89;99.63;101639.94;5069743;28;20499;-66
2022/10/13 08:41:26;;;;;;;21.02;9.52;;;;;;;12.93;99.46;101641.19;5069647;28;20040;-66
2022/10/13 08:43:54;;;;;;;22.02;10.27;;;;;;;12.92;98.36;101639.53;5069534;28;20025;-66
2022/10/13 08:46:28;;;;;;;19.15;9.10;;;;;;;12.94;97.93;101642.00;5069680;28;20051;-66
2022/10/13 08:48:56;;;;;;;21.30;10.00;;;;;;;12.93;99.32;101625.13;5069602;28;20442;-66
2022/10/13 08:51:21;;;;;;;22.77;9.40;;;;;;;12.99;99.32;101622.69;5069440;28;20116;-67
2022/10/13 08:53:47;;;;;;;23.77;11.90;;;;;;;13.00;99.23;101625.19;5068842;28;20474;-66
2022/10/13 08:56:16;;;;;;;19.05;11.02;;;;;;;13.04;98.19;101631.81;5069529;28;20093;-66
2022/10/13 08:58:42;;;;;;;21.80;10.68;;;;;;;13.05;97.53;101624.63;5069324;28;20074;-66
2022/10/13 09:01:07;;;;;;;18.55;9.40;;;;;;;13.14;97.36;101632.28;5069397;28;20236;-66
2022/10/13 09:04:00;;;;;;;20.33;10.33;;;;;;;13.20;97.04;101625.31;5069464;28;20430;-66
2022/10/13 09:06:27;;;;;;;17.52;8.05;;;;;;;13.23;96.65;101626.78;5068868;28;20286;-66
2022/10/13 09:09:08;;;;;;;17.30;9.52;;;;;;;13.26;97.24;101629.97;5069202;28;20392;-66
2022/10/13 09:11:36;;;;;;;24.52;10.63;;;;;;;13.28;96.28;101629.75;5069425;28;20108;-66
2022/10/13 09:14:04;;;;;;;17.13;7.75;;;;;;;13.28;96.32;101625.25;5069329;28;20379;-66
2022/10/13 09:16:38;;;;;;;20.25;9.98;;;;;;;13.32;96.94;101623.81;5069240;28;20383;-66
2022/10/13 09:19:26;;;;;;;16.90;8.77;;;;;;;13.33;97.31;101627.31;5069097;28;20120;-66
2022/10/13 09:22:11;;;;;;;20.83;9.77;;;;;;;13.34;95.99;101618.28;5069305;28;20147;-66
2022/10/13 09:24:37;;;;;;;19.80;9.48;;;;;;;13.34;95.42;101624.44;5069457;28;20036;-66
2022/10/13 09:27:13;;;;;;;19.58;9.85;;;;;;;13.34;96.16;101618.28;5069138;28;20044;-66
2022/10/13 09:29:38;;;;;;;19.08;9.65;;;;;;;13.31;95.98;101619.50;5069049;28;20031;-66
2022/10/13 09:32:16;;;;;;;18.05;9.70;;;;;;;13.29;95.95;101618.84;5068502;28;20032;-66
2022/10/13 09:34:42;;;;;;;19.02;9.98;;;;;;;13.27;96.10;101620.06;5068527;28;20033;-66
2022/10/13 09:37:21;;;;;;;22.38;11.18;;;;;;;13.28;96.44;101619.88;5068905;28;20037;-66
2022/10/13 09:40:00;;;;;;;17.95;9.25;;;;;;;13.28;95.75;101622.56;5068927;28;20032;-66
2022/10/13 09:42:28;;;;;;;17.85;9.77;;;;;;;13.27;97.00;101620.88;5068963;28;20059;-66
2022/10/13 09:45:10;;;;;;;23.02;9.98;;;;;;;13.27;96.39;101620.06;5068987;28;20024;-66
2022/10/13 09:47:37;;;;;;;22.05;8.90;;;;;;;13.25;96.51;101611.34;5068900;28;20028;-66
2022/10/13 09:50:21;;;;;;;23.42;9.52;;;;;;;13.25;96.72;101612.19;5068796;28;20066;-66
2022/10/13 09:52:48;;;;;;;24.80;9.65;;;;;;;13.20;96.42;101606.56;5068838;28;20036;-66
2022/10/13 09:55:32;;;;;;;19.42;8.23;;;;;;;13.27;96.37;101612.84;5068906;28;20051;-66
2022/10/13 09:58:23;;;;;;;17.33;8.23;;;;;;;13.29;95.63;101610.00;5068855;28;20036;-66
2022/10/13 10:00:51;;;;;;;19.10;9.30;;;;;;;13.29;95.09;101608.13;5068905;28;20123;-67
2022/10/13 10:03:27;;;;;;;20.73;8.15;;;;;;;13.34;95.78;101611.06;5069291;28;20116;-66
2022/10/13 10:05:55;;;;;;;21.90;8.50;;;;;;;13.30;96.20;101604.41;5072572;28;20126;-66
2022/10/13 10:08:32;;;;;;;17.67;8.77;;;;;;;13.34;95.77;101602.19;5072117;28;20044;-66
2022/10/13 10:11:01;;;;;;;19.25;9.20;;;;;;;13.31;95.56;101611.44;5072096;28;20591;-66
2022/10/13 10:13:26;;;;;;;21.48;9.88;;;;;;;13.29;95.49;101616.16;5072443;28;20086;-67
2022/10/13 10:15:59;;;;;;;18.92;10.32;;;;;;;13.28;96.22;101616.34;5072470;28;20036;-66
2022/10/13 10:18:35;;;;;;;23.52;9.05;;;;;;;13.23;96.85;101613.41;5072035;28;20147;-66
2022/10/13 10:21:08;;;;;;;16.00;8.25;;;;;;;13.21;96.90;101605.56;5072223;28;20032;-66
2022/10/13 10:23:53;;;;;;;19.27;9.52;;;;;;;13.16;98.36;101606.16;5069383;28;20032;-65
2022/10/13 10:26:37;;;;;;;19.35;8.23;;;;;;;13.14;98.87;101599.34;5067676;28;20025;-65
2022/10/13 10:29:18;;;;;;;20.33;8.27;;;;;;;13.13;100.00;101601.19;5066210;28;20024;-65
2022/10/13 10:32:02;;;;;;;20.30;8.93;;;;;;;13.13;99.78;101601.19;5068386;28;20165;-66
2022/10/13 10:35:02;;;;;;;21.45;9.35;;;;;;;13.12;99.96;101598.69;5060146;28;20060;-66
2022/10/13 10:37:37;;;;;;;21.25;9.65;;;;;;;13.14;100.00;101602.84;5059892;28;20123;-67
2022/10/13 10:40:13;;;;;;;22.50;9.65;;;;;;;13.13;100.00;101603.88;5064226;28;20074;-67
2022/10/13 10:42:54;;;;;;;20.92;9.68;;;;;;;13.12;100.00;101604.88;5067444;28;20494;-67
2022/10/13 10:45:24;;;;;;;17.10;8.07;;;;;;;13.06;100.00;101602.97;5067412;28;20025;-67
2022/10/13 10:47:55;;;;;;;20.75;9.63;;;;;;;13.03;100.00;101606.06;5067100;28;20577;-66
2022/10/13 10:50:22;;;;;;;24.63;10.27;;;;;;;12.97;100.00;101592.59;5064711;28;20356;-66
2022/10/13 10:52:53;;;;;;;17.83;9.30;;;;;;;12.92;100.00;101595.88;5063808;28;21012;-66
2022/10/13 10:55:34;;;;;;;16.25;8.35;;;;;;;12.87;100.00;101593.78;5061638;28;20129;-65
2022/10/13 10:58:31;;;;;;;18.33;8.65;;;;;;;12.87;100.00;101590.28;5061713;28;20063;-65
2022/10/13 11:01:02;;;;;;;18.40;8.45;;;;;;;12.81;100.00;101575.81;5058803;28;20419;-66
2022/10/13 11:03:37;;;;;;;23.30;11.52;;;;;;;12.86;100.00;101583.25;5060206;28;20038;-66
2022/10/13 11:06:15;;;;;;;22.55;10.13;;;;;;;12.82;100.00;101588.19;5061082;28;20036;-66
2022/10/13 11:08:42;;;;;;;19.20;10.00;;;;;;;12.84;100.00;101588.81;5059199;28;20036;-65
2022/10/13 11:11:24;;;;;;;19.45;9.02;;;;;;;12.87;100.00;101582.25;5068943;28;20028;-65
2022/10/13 11:13:55;;;;;;;18.58;9.90;;;;;;;12.86;100.00;101581.44;5071370;28;20039;-65
2022/10/13 11:16:32;;;;;;;19.77;11.32;;;;;;;12.89;100.00;101581.03;5070486;28;20483;-65